Time;durP1;ratioP1;P1;durP2;ratioP2;P2;SDS_P1;SDS_P2;PMS_P1;PMS_P2;Temp;Humidity;BMP_temperature;BMP_pressure;BME280_temperature;BME280_humidity;BME280_pressure;Samples;Min_cycle;Max_cycle;Signal;HPM_P1;HPM_P2
2022/03/06 00:01:44;;;;;;;17.97;10.60;;;;;;;0.70;79.47;96126.13;4967054;28;20229;-85
2022/03/06 00:04:11;;;;;;;18.33;10.90;;;;;;;0.67;79.72;96126.50;4974513;28;20260;-84
2022/03/06 00:06:38;;;;;;;19.87;11.60;;;;;;;0.72;79.20;96129.47;4971977;28;20221;-85
2022/03/06 00:09:07;;;;;;;16.90;10.70;;;;;;;0.68;78.78;96136.09;4962188;28;20274;-84
2022/03/06 00:11:34;;;;;;;19.93;10.93;;;;;;;0.74;78.87;96148.72;4953494;28;20202;-84
2022/03/06 00:14:01;;;;;;;18.23;11.93;;;;;;;0.66;77.89;96132.81;4955849;28;20217;-85
2022/03/06 00:16:28;;;;;;;18.27;10.77;;;;;;;0.55;77.50;96133.19;4955194;28;20212;-84
2022/03/06 00:18:56;;;;;;;19.03;11.13;;;;;;;0.54;78.14;96146.66;4953270;28;20224;-84
2022/03/06 00:21:23;;;;;;;18.70;11.00;;;;;;;0.52;78.10;96138.84;4963228;28;20301;-84
2022/03/06 00:23:50;;;;;;;20.77;12.17;;;;;;;0.49;79.12;96147.19;4954699;28;20319;-84
2022/03/06 00:26:18;;;;;;;23.53;14.57;;;;;;;0.40;80.96;96139.41;4976405;28;20214;-84
2022/03/06 00:28:46;;;;;;;25.33;13.60;;;;;;;0.37;82.53;96136.09;4950755;28;20242;-84
2022/03/06 00:31:13;;;;;;;22.67;13.30;;;;;;;0.41;80.61;96141.91;4954174;28;20222;-84
2022/03/06 00:33:40;;;;;;;21.50;13.10;;;;;;;0.38;81.01;96129.78;4964732;28;20296;-84
2022/03/06 00:36:07;;;;;;;22.17;13.37;;;;;;;0.39;80.40;96127.97;4955934;28;20243;-83
2022/03/06 00:38:34;;;;;;;21.17;12.80;;;;;;;0.46;79.78;96131.59;4951079;28;20248;-84
2022/03/06 00:41:01;;;;;;;22.93;13.60;;;;;;;0.44;79.74;96146.84;4975786;28;20333;-84
2022/03/06 00:43:31;;;;;;;27.37;14.57;;;;;;;0.35;80.87;96137.25;4958785;28;20236;-83
2022/03/06 00:45:58;;;;;;;24.17;13.50;;;;;;;0.21;81.54;96132.69;4961456;28;20205;-84
2022/03/06 00:48:26;;;;;;;23.50;13.23;;;;;;;0.13;81.25;96133.53;4954217;28;20205;-84
2022/03/06 00:50:53;;;;;;;23.17;13.67;;;;;;;0.13;82.34;96146.81;4960843;28;20296;-83
2022/03/06 00:53:20;;;;;;;22.83;13.50;;;;;;;0.14;83.05;96147.66;4958303;28;20209;-83
2022/03/06 00:55:47;;;;;;;18.63;10.73;;;;;;;0.20;82.79;96149.59;4970998;28;20213;-84
2022/03/06 00:58:14;;;;;;;20.80;12.00;;;;;;;0.17;82.43;96152.63;4961740;28;20196;-84
2022/03/06 01:00:48;;;;;;;21.53;12.10;;;;;;;0.21;81.48;96159.22;4956716;28;20232;-84
2022/03/06 01:03:19;;;;;;;23.30;12.53;;;;;;;0.13;82.73;96151.28;4971221;28;20313;-84
2022/03/06 01:05:46;;;;;;;22.23;12.67;;;;;;;0.14;82.99;96153.78;4967975;28;20317;-84
2022/03/06 01:08:14;;;;;;;21.03;12.47;;;;;;;0.05;83.63;96157.47;4954223;28;20293;-84
2022/03/06 01:10:44;;;;;;;20.30;12.70;;;;;;;0.02;84.17;96160.44;4960131;28;20228;-84
2022/03/06 01:13:12;;;;;;;25.07;13.37;;;;;;;-0.09;84.88;96153.69;4971907;28;20233;-84
2022/03/06 01:15:40;;;;;;;19.07;11.97;;;;;;;-0.12;85.34;96164.63;4961964;28;20220;-84
2022/03/06 01:18:09;;;;;;;20.63;11.70;;;;;;;-0.19;84.53;96155.69;4960584;28;20212;-84
2022/03/06 01:20:37;;;;;;;21.27;12.40;;;;;;;-0.23;83.90;96158.84;4974756;28;20212;-84
2022/03/06 01:23:06;;;;;;;18.77;11.47;;;;;;;-0.27;83.98;96153.06;4979008;28;20268;-84
2022/03/06 01:25:33;;;;;;;23.03;12.07;;;;;;;-0.30;82.46;96141.94;4951920;28;20224;-84
2022/03/06 01:28:00;;;;;;;21.87;11.63;;;;;;;-0.36;84.29;96151.41;4955936;28;20225;-84
2022/03/06 01:30:27;;;;;;;24.00;12.37;;;;;;;-0.32;84.37;96144.75;4972731;28;20301;-84
2022/03/06 01:32:55;;;;;;;22.27;12.97;;;;;;;-0.33;84.94;96152.88;4958665;28;20232;-84
2022/03/06 01:35:23;;;;;;;20.93;12.57;;;;;;;-0.34;85.16;96157.34;4950504;28;20280;-84
2022/03/06 01:37:51;;;;;;;19.77;11.80;;;;;;;-0.34;85.51;96146.72;4985518;28;20237;-84
2022/03/06 01:40:19;;;;;;;23.50;12.63;;;;;;;-0.26;85.29;96153.88;4950059;28;20278;-84
2022/03/06 01:42:48;;;;;;;21.53;11.70;;;;;;;-0.20;84.86;96159.34;4965397;28;20226;-84
2022/03/06 01:45:16;;;;;;;19.17;12.03;;;;;;;-0.25;84.62;96150.19;4972119;28;20201;-85
2022/03/06 01:47:45;;;;;;;20.03;12.13;;;;;;;-0.21;84.23;96157.66;4965660;28;20237;-84
2022/03/06 01:50:16;;;;;;;23.87;12.00;;;;;;;-0.25;85.00;96156.34;4958952;28;20206;-84
2022/03/06 01:52:47;;;;;;;20.70;11.87;;;;;;;-0.30;85.17;96153.38;4960112;28;20201;-84
2022/03/06 01:55:16;;;;;;;17.40;10.97;;;;;;;-0.30;85.80;96156.03;4962600;28;20224;-84
2022/03/06 01:57:44;;;;;;;18.27;11.73;;;;;;;-0.25;86.25;96161.66;4957350;28;20217;-84
2022/03/06 02:00:16;;;;;;;19.37;11.80;;;;;;;-0.22;86.21;96160.50;4986020;28;20279;-84
2022/03/06 02:02:44;;;;;;;19.43;11.90;;;;;;;-0.22;84.96;96158.66;4953648;28;20233;-84
2022/03/06 02:05:11;;;;;;;22.10;11.70;;;;;;;-0.20;84.56;96154.03;4955199;28;20201;-84
2022/03/06 02:07:39;;;;;;;21.17;12.40;;;;;;;-0.14;85.10;96157.81;4960697;28;20216;-85
2022/03/06 02:10:09;;;;;;;17.83;11.27;;;;;;;-0.12;83.88;96153.19;4954413;28;20206;-84
2022/03/06 02:12:37;;;;;;;20.37;11.43;;;;;;;-0.10;83.14;96152.03;4955245;28;20209;-84
2022/03/06 02:15:07;;;;;;;19.63;11.17;;;;;;;-0.08;83.38;96143.88;4953425;28;20216;-85
2022/03/06 02:17:37;;;;;;;18.27;11.27;;;;;;;-0.03;83.31;96145.03;4961768;28;20221;-85
2022/03/06 02:20:07;;;;;;;22.10;11.57;;;;;;;0.00;80.91;96139.38;4959423;28;20202;-84
2022/03/06 02:22:38;;;;;;;20.33;11.83;;;;;;;-0.14;81.28;96137.41;4949844;28;20325;-84
2022/03/06 02:25:08;;;;;;;20.63;12.13;;;;;;;-0.16;81.88;96149.19;4956629;28;20241;-83
2022/03/06 02:27:35;;;;;;;19.50;11.53;;;;;;;-0.26;84.19;96143.28;4955173;28;20209;-84
2022/03/06 02:30:05;;;;;;;20.47;11.80;;;;;;;-0.24;83.95;96147.38;4956542;28;20205;-84
2022/03/06 02:32:33;;;;;;;19.93;11.57;;;;;;;-0.21;83.24;96140.94;4953169;28;20217;-85
2022/03/06 02:35:00;;;;;;;19.70;11.97;;;;;;;-0.21;83.25;96136.44;4974105;28;20232;-85
2022/03/06 02:37:27;;;;;;;20.73;11.80;;;;;;;-0.18;82.67;96133.47;4960654;28;20209;-84
2022/03/06 02:39:55;;;;;;;16.87;11.33;;;;;;;-0.09;81.75;96134.28;4955031;28;20210;-84
2022/03/06 02:42:27;;;;;;;19.20;11.20;;;;;;;-0.04;81.43;96138.06;4953448;28;20243;-84
2022/03/06 02:44:55;;;;;;;18.80;10.70;;;;;;;-0.03;80.51;96145.03;4962190;28;20232;-84
2022/03/06 02:47:22;;;;;;;19.57;11.67;;;;;;;-0.03;81.57;96153.00;4974973;28;20238;-84
2022/03/06 02:49:50;;;;;;;21.27;12.27;;;;;;;-0.07;81.57;96142.88;4963142;28;20243;-83
2022/03/06 02:52:17;;;;;;;17.30;10.90;;;;;;;-0.09;81.09;96142.25;4962406;28;20212;-84
2022/03/06 02:54:44;;;;;;;17.30;10.97;;;;;;;-0.07;80.25;96133.09;4977185;28;20210;-84
2022/03/06 02:57:13;;;;;;;19.37;11.37;;;;;;;0.03;80.04;96153.31;4968382;28;20200;-84
2022/03/06 02:59:41;;;;;;;19.97;12.07;;;;;;;-0.04;80.12;96142.53;4962259;28;20627;-85
2022/03/06 03:02:08;;;;;;;18.20;11.57;;;;;;;-0.05;80.67;96146.19;4971417;28;20216;-85
2022/03/06 03:04:38;;;;;;;20.53;11.23;;;;;;;-0.03;80.80;96149.50;4961693;28;20303;-84
2022/03/06 03:07:07;;;;;;;19.70;11.63;;;;;;;-0.09;80.66;96156.34;4956502;28;20210;-85
2022/03/06 03:09:34;;;;;;;20.97;11.67;;;;;;;-0.11;81.72;96157.50;4965611;28;20212;-85
2022/03/06 03:12:02;;;;;;;18.67;11.30;;;;;;;-0.16;82.14;96149.19;4956800;28;20211;-85
2022/03/06 03:14:32;;;;;;;19.13;11.93;;;;;;;-0.22;82.78;96155.19;4976929;28;21442;-85
2022/03/06 03:16:59;;;;;;;18.60;11.83;;;;;;;-0.33;82.32;96147.56;4958721;28;20216;-85
2022/03/06 03:19:27;;;;;;;23.97;12.03;;;;;;;-0.42;82.46;96144.91;4961973;28;20235;-85
2022/03/06 03:21:55;;;;;;;19.23;11.13;;;;;;;-0.44;83.74;96146.09;4985107;28;20209;-85
2022/03/06 03:24:22;;;;;;;19.40;11.03;;;;;;;-0.44;84.95;96143.44;4960829;28;20494;-85
2022/03/06 03:26:50;;;;;;;22.07;12.13;;;;;;;-0.49;84.85;96141.28;4961937;28;20224;-84
2022/03/06 03:29:17;;;;;;;20.77;12.00;;;;;;;-0.52;85.25;96138.16;4954950;28;20205;-84
2022/03/06 03:31:48;;;;;;;21.70;12.20;;;;;;;-0.53;85.48;96144.44;4961169;28;20237;-85
2022/03/06 03:34:15;;;;;;;18.03;11.37;;;;;;;-0.55;85.86;96143.78;4964280;28;20295;-85
2022/03/06 03:36:43;;;;;;;18.63;11.23;;;;;;;-0.49;86.27;96148.41;4959479;28;20216;-85
2022/03/06 03:39:10;;;;;;;22.57;11.90;;;;;;;-0.44;84.50;96146.09;4968397;28;20248;-84
2022/03/06 03:41:37;;;;;;;16.27;10.50;;;;;;;-0.40;84.26;96142.94;4967906;28;20200;-83
2022/03/06 03:44:05;;;;;;;18.37;10.83;;;;;;;-0.29;83.00;96159.50;4969922;28;20248;-85
2022/03/06 03:46:32;;;;;;;18.40;10.73;;;;;;;-0.32;82.86;96150.06;4967511;28;20233;-84
2022/03/06 03:49:01;;;;;;;17.53;10.90;;;;;;;-0.28;81.66;96166.47;4968476;28;20214;-84
2022/03/06 03:51:28;;;;;;;18.57;10.83;;;;;;;-0.32;81.42;96155.34;4963380;28;20247;-84
2022/03/06 03:53:55;;;;;;;16.90;10.30;;;;;;;-0.25;82.16;96166.94;4957844;28;20220;-84
2022/03/06 03:56:22;;;;;;;19.43;10.70;;;;;;;-0.31;81.07;96166.81;4961529;28;20239;-84
2022/03/06 03:58:50;;;;;;;16.97;10.50;;;;;;;-0.39;81.79;96159.69;4960427;28;20284;-84
2022/03/06 04:01:18;;;;;;;17.50;11.13;;;;;;;-0.44;81.67;96162.03;4952987;28;20201;-83
2022/03/06 04:03:45;;;;;;;21.77;12.00;;;;;;;-0.44;81.80;96172.63;4959598;28;20222;-84
2022/03/06 04:06:14;;;;;;;17.97;10.40;;;;;;;-0.52;81.01;96165.50;4989479;28;20212;-83
2022/03/06 04:08:42;;;;;;;16.47;10.67;;;;;;;-0.55;81.78;96171.13;4954651;28;20344;-84
2022/03/06 04:11:09;;;;;;;18.00;11.07;;;;;;;-0.55;81.33;96165.00;4952559;28;20274;-84
2022/03/06 04:13:36;;;;;;;20.87;11.87;;;;;;;-0.58;80.97;96170.63;4958714;28;20241;-84
2022/03/06 04:16:04;;;;;;;21.07;11.17;;;;;;;-0.68;82.15;96162.03;4962148;28;20216;-84
2022/03/06 04:18:31;;;;;;;18.63;11.20;;;;;;;-0.69;83.04;96168.31;4990261;28;20212;-84
2022/03/06 04:20:58;;;;;;;19.17;11.00;;;;;;;-0.70;84.74;96183.41;4970875;28;20201;-84
2022/03/06 04:23:27;;;;;;;18.83;11.00;;;;;;;-0.79;84.95;96184.38;4951093;28;20226;-84
2022/03/06 04:25:54;;;;;;;17.00;10.03;;;;;;;-0.85;84.62;96183.19;4962201;28;20237;-83
2022/03/06 04:28:21;;;;;;;18.23;10.53;;;;;;;-0.84;85.31;96179.56;4984664;28;20321;-83
2022/03/06 04:30:51;;;;;;;17.60;11.37;;;;;;;-0.82;85.47;96187.34;4954173;28;20214;-83
2022/03/06 04:33:18;;;;;;;20.20;11.73;;;;;;;-0.88;86.07;96180.06;4960505;28;20318;-84
2022/03/06 04:35:45;;;;;;;19.90;10.70;;;;;;;-0.86;86.09;96178.91;4985342;28;20204;-84
2022/03/06 04:38:12;;;;;;;18.63;11.70;;;;;;;-0.92;86.69;96166.28;4952487;28;20230;-85
2022/03/06 04:40:41;;;;;;;17.17;10.67;;;;;;;-0.97;86.81;96170.44;4969540;28;20194;-84
2022/03/06 04:43:08;;;;;;;38.40;19.27;;;;;;;-1.02;87.11;96168.25;4960507;28;20304;-84
2022/03/06 04:45:35;;;;;;;25.43;14.23;;;;;;;-0.98;87.20;96169.59;4955554;28;20209;-85
2022/03/06 04:48:02;;;;;;;24.73;13.00;;;;;;;-0.98;87.77;96159.00;4965441;28;20282;-84
2022/03/06 04:50:29;;;;;;;21.40;12.43;;;;;;;-1.07;87.98;96154.69;4967062;28;20213;-84
2022/03/06 04:52:56;;;;;;;20.40;13.50;;;;;;;-1.08;88.45;96166.28;4954493;28;20217;-84
2022/03/06 04:55:23;;;;;;;21.43;13.50;;;;;;;-1.12;86.40;96167.59;4972190;28;20212;-84
2022/03/06 04:57:53;;;;;;;22.00;13.17;;;;;;;-1.15;87.93;96167.91;4963425;28;20327;-83
2022/03/06 05:00:20;;;;;;;21.93;12.10;;;;;;;-1.18;88.99;96173.53;4962581;28;20206;-83
2022/03/06 05:02:47;;;;;;;17.50;10.50;;;;;;;-1.16;89.10;96179.50;4950908;28;20212;-83
2022/03/06 05:05:14;;;;;;;17.70;11.07;;;;;;;-1.12;89.28;96178.19;4957788;28;20271;-84
2022/03/06 05:07:41;;;;;;;22.73;11.83;;;;;;;-1.11;88.72;96179.88;4966589;28;20193;-85
2022/03/06 05:10:10;;;;;;;20.70;10.87;;;;;;;-1.16;88.26;96182.97;4964972;28;20197;-85
2022/03/06 05:12:38;;;;;;;20.60;11.73;;;;;;;-1.20;88.38;96194.06;4961417;28;20212;-85
2022/03/06 05:15:09;;;;;;;18.67;11.10;;;;;;;-1.25;88.07;96193.72;4962620;28;20214;-84
2022/03/06 05:17:36;;;;;;;17.27;11.90;;;;;;;-1.29;88.73;96189.75;4979234;28;20216;-84
2022/03/06 05:20:04;;;;;;;19.20;11.63;;;;;;;-1.24;88.65;96196.22;4974939;28;20295;-85
2022/03/06 05:22:31;;;;;;;20.03;11.43;;;;;;;-1.30;88.20;96185.44;4958166;28;20301;-85
2022/03/06 05:24:58;;;;;;;17.27;10.63;;;;;;;-1.33;88.79;96191.03;4954515;28;20278;-84
2022/03/06 05:27:26;;;;;;;20.90;12.00;;;;;;;-1.35;89.02;96198.31;4962717;28;20205;-84
2022/03/06 05:29:53;;;;;;;17.83;10.87;;;;;;;-1.39;89.05;96197.81;4983089;28;20214;-85
2022/03/06 05:32:21;;;;;;;19.80;12.00;;;;;;;-1.37;89.41;96195.03;4970615;28;20206;-84
2022/03/06 05:34:49;;;;;;;19.03;11.63;;;;;;;-1.35;89.92;96190.38;4958066;28;20212;-84
2022/03/06 05:37:16;;;;;;;19.03;11.60;;;;;;;-1.30;89.35;96203.97;4952438;28;20227;-84
2022/03/06 05:39:43;;;;;;;21.33;11.97;;;;;;;-1.34;89.46;96202.63;4956887;28;20287;-84
2022/03/06 05:42:11;;;;;;;19.67;12.20;;;;;;;-1.36;88.36;96209.91;4966307;28;20287;-85
2022/03/06 05:44:38;;;;;;;19.70;11.43;;;;;;;-1.42;88.65;96208.72;4954695;28;20276;-85
2022/03/06 05:47:05;;;;;;;16.43;10.40;;;;;;;-1.44;88.54;96204.56;5040675;28;20201;-85
2022/03/06 05:49:34;;;;;;;19.50;11.80;;;;;;;-1.50;89.72;96216.63;4991234;28;20213;-85
2022/03/06 05:52:02;;;;;;;22.67;12.67;;;;;;;-1.49;90.40;96220.13;4964120;28;20304;-86
2022/03/06 05:54:29;;;;;;;18.60;12.60;;;;;;;-1.46;90.00;96217.16;4993413;28;20294;-84
2022/03/06 05:56:57;;;;;;;22.70;12.80;;;;;;;-1.39;89.78;96212.88;4960711;28;20213;-85
2022/03/06 05:59:24;;;;;;;18.77;11.53;;;;;;;-1.41;89.84;96215.69;4968716;28;20221;-84
2022/03/06 06:01:51;;;;;;;21.40;12.13;;;;;;;-1.48;90.59;96225.25;4956175;28;20222;-85
2022/03/06 06:04:20;;;;;;;18.27;11.40;;;;;;;-1.49;90.47;96223.59;4960537;28;20283;-84
2022/03/06 06:06:48;;;;;;;20.00;11.87;;;;;;;-1.48;90.60;96219.13;4955769;28;20208;-86
2022/03/06 06:09:19;;;;;;;21.30;12.27;;;;;;;-1.52;90.36;96230.03;4964563;28;20262;-85
2022/03/06 06:11:46;;;;;;;22.07;12.93;;;;;;;-1.60;90.67;96232.63;4960153;28;20284;-84
2022/03/06 06:14:13;;;;;;;19.27;11.73;;;;;;;-1.54;91.07;96229.38;4982504;28;20211;-86
2022/03/06 06:16:40;;;;;;;19.10;11.53;;;;;;;-1.48;90.61;96241.16;4959989;28;20216;-84
2022/03/06 06:19:07;;;;;;;20.20;12.00;;;;;;;-1.54;89.72;96245.28;4972102;28;20204;-85
2022/03/06 06:21:35;;;;;;;20.23;12.03;;;;;;;-1.57;90.29;96242.09;4957421;28;20220;-83
2022/03/06 06:24:03;;;;;;;21.03;11.60;;;;;;;-1.57;89.63;96237.63;4960801;28;20225;-84
2022/03/06 06:26:30;;;;;;;20.37;11.90;;;;;;;-1.57;89.23;96242.94;4966966;28;20205;-84
2022/03/06 06:28:58;;;;;;;20.33;12.40;;;;;;;-1.58;88.88;96245.72;4974935;28;20316;-85
2022/03/06 06:31:25;;;;;;;19.87;11.37;;;;;;;-1.62;90.48;96253.16;4979315;28;20208;-84
2022/03/06 06:33:54;;;;;;;18.73;10.60;;;;;;;-1.64;90.40;96247.19;4964921;28;20212;-85
2022/03/06 06:36:21;;;;;;;21.07;11.63;;;;;;;-1.57;89.32;96247.38;4961410;28;20208;-86
2022/03/06 06:38:52;;;;;;;23.77;12.10;;;;;;;-1.59;89.51;96244.06;4978000;28;20313;-85
2022/03/06 06:41:21;;;;;;;20.40;12.23;;;;;;;-1.67;89.72;96249.31;4953396;28;20212;-84
2022/03/06 06:43:48;;;;;;;20.57;11.13;;;;;;;-1.76;89.76;96237.03;4964491;28;20299;-84
2022/03/06 06:46:15;;;;;;;18.27;10.50;;;;;;;-1.80;90.48;96236.53;4964484;28;20209;-85
2022/03/06 06:48:43;;;;;;;22.30;11.47;;;;;;;-1.80;90.48;96239.16;4966565;28;20218;-84
2022/03/06 06:51:10;;;;;;;20.13;10.90;;;;;;;-1.82;90.33;96243.78;4971443;28;20216;-84
2022/03/06 06:53:37;;;;;;;21.13;10.57;;;;;;;-1.76;89.42;96264.31;4968044;28;20208;-84
2022/03/06 06:56:06;;;;;;;20.23;11.10;;;;;;;-1.74;87.63;96246.47;4957781;28;20267;-85
2022/03/06 06:58:34;;;;;;;17.53;11.13;;;;;;;-1.63;86.82;96254.16;4958112;28;20251;-84
2022/03/06 07:01:01;;;;;;;17.60;10.43;;;;;;;-1.54;86.35;96262.97;4960283;28;20213;-84
2022/03/06 07:03:29;;;;;;;20.67;10.57;;;;;;;-1.41;84.71;96255.41;4959360;28;20209;-84
2022/03/06 07:05:58;;;;;;;20.30;10.63;;;;;;;-1.29;84.22;96256.78;4968716;28;20221;-85
2022/03/06 07:08:25;;;;;;;21.23;11.33;;;;;;;-1.26;82.96;96258.28;4959406;28;20218;-85
2022/03/06 07:10:52;;;;;;;17.63;10.73;;;;;;;-1.24;82.29;96258.94;4961190;28;20236;-85
2022/03/06 07:13:19;;;;;;;19.70;11.53;;;;;;;-1.18;82.63;96253.00;4964797;28;20209;-85
2022/03/06 07:15:48;;;;;;;18.70;10.70;;;;;;;-1.19;82.83;96244.22;4975612;28;20216;-85
2022/03/06 07:18:15;;;;;;;16.20;9.97;;;;;;;-1.09;82.98;96249.41;4956634;28;20245;-84
2022/03/06 07:20:42;;;;;;;15.57;9.23;;;;;;;-1.02;80.74;96247.75;4996364;28;20307;-84
2022/03/06 07:23:09;;;;;;;17.57;8.93;;;;;;;-1.00;77.41;96251.09;4960537;28;20229;-84
2022/03/06 07:25:36;;;;;;;14.10;8.53;;;;;;;-0.98;74.22;96246.47;4992909;28;20254;-85
2022/03/06 07:28:04;;;;;;;13.67;8.37;;;;;;;-0.90;72.77;96249.13;4956473;28;20233;-84
2022/03/06 07:30:31;;;;;;;16.37;9.90;;;;;;;-0.93;73.83;96240.66;4989604;28;20297;-84
2022/03/06 07:33:00;;;;;;;18.10;10.30;;;;;;;-1.00;74.85;96240.47;4962383;28;20213;-85
2022/03/06 07:35:28;;;;;;;19.40;10.10;;;;;;;-1.08;75.22;96237.81;4966972;28;20269;-85
2022/03/06 07:37:55;;;;;;;15.77;9.83;;;;;;;-1.08;76.14;96232.50;4958584;28;20323;-84
2022/03/06 07:40:24;;;;;;;17.70;9.97;;;;;;;-0.97;76.06;96239.34;4980526;28;20216;-85
2022/03/06 07:42:51;;;;;;;16.30;9.57;;;;;;;-1.01;74.53;96233.53;4983101;28;20209;-85
2022/03/06 07:45:19;;;;;;;18.23;9.93;;;;;;;-1.02;74.90;96231.84;4956401;28;20228;-85
2022/03/06 07:47:46;;;;;;;16.97;9.80;;;;;;;-1.02;76.03;96231.06;4964922;28;20213;-84
2022/03/06 07:50:16;;;;;;;16.00;9.03;;;;;;;-0.93;74.52;96233.53;4999753;28;20308;-85
2022/03/06 07:52:43;;;;;;;16.17;9.67;;;;;;;-0.89;75.30;96226.09;4977358;28;20221;-85
2022/03/06 07:55:11;;;;;;;14.50;8.70;;;;;;;-0.74;73.47;96231.59;4961021;28;20212;-85
2022/03/06 07:57:38;;;;;;;16.57;9.17;;;;;;;-0.67;72.28;96230.78;4962576;28;20208;-85
2022/03/06 08:00:09;;;;;;;13.37;8.57;;;;;;;-0.62;70.88;96239.09;4960736;28;20210;-85
2022/03/06 08:02:39;;;;;;;15.03;8.37;;;;;;;-0.61;69.98;96218.69;4987300;28;20223;-85
2022/03/06 08:05:09;;;;;;;14.03;8.57;;;;;;;-0.55;69.11;96228.66;4987838;28;20253;-86
2022/03/06 08:07:37;;;;;;;17.50;8.97;;;;;;;-0.54;68.24;96225.84;4968609;28;20213;-86
2022/03/06 08:10:06;;;;;;;13.37;8.17;;;;;;;-0.49;68.48;96220.03;4958923;28;20438;-85
2022/03/06 08:12:33;;;;;;;16.00;8.73;;;;;;;-0.53;68.83;96216.88;4996909;28;20232;-85
2022/03/06 08:15:00;;;;;;;20.17;11.30;;;;;;;-0.56;71.63;96219.84;4954649;28;20209;-85
2022/03/06 08:17:27;;;;;;;19.17;11.40;;;;;;;-0.55;73.07;96223.34;4958565;28;20214;-85
2022/03/06 08:19:55;;;;;;;20.37;11.53;;;;;;;-0.57;72.99;96214.72;4970143;28;20213;-85
2022/03/06 08:22:23;;;;;;;19.03;10.63;;;;;;;-0.57;74.27;96204.09;4961985;28;20213;-86
2022/03/06 08:24:54;;;;;;;19.43;11.00;;;;;;;-0.47;73.25;96204.78;4955296;28;20240;-85
2022/03/06 08:27:22;;;;;;;21.63;11.20;;;;;;;-0.40;74.35;96205.78;5002011;28;20213;-85
2022/03/06 08:29:49;;;;;;;18.07;10.77;;;;;;;-0.35;74.24;96203.47;4968168;28;20213;-85
2022/03/06 08:32:17;;;;;;;18.70;10.00;;;;;;;-0.26;74.88;96202.47;4970250;28;20200;-86
2022/03/06 08:34:44;;;;;;;16.53;9.50;;;;;;;-0.25;73.88;96201.44;4957228;28;20232;-85
2022/03/06 08:37:11;;;;;;;19.10;10.37;;;;;;;-0.20;73.49;96204.44;4993515;28;20234;-85
2022/03/06 08:39:38;;;;;;;20.63;10.97;;;;;;;-0.15;72.06;96204.75;4964797;28;20308;-86
2022/03/06 08:42:07;;;;;;;17.37;9.57;;;;;;;-0.11;68.83;96195.47;4982989;28;20213;-85
2022/03/06 08:44:35;;;;;;;14.47;9.00;;;;;;;-0.01;69.82;96206.75;4981921;28;20228;-84
2022/03/06 08:47:02;;;;;;;13.27;8.40;;;;;;;-0.01;68.98;96190.81;4979658;28;20217;-86
2022/03/06 08:49:29;;;;;;;14.70;9.20;;;;;;;0.08;69.31;96201.44;4971759;28;20258;-85
2022/03/06 08:51:56;;;;;;;16.37;9.70;;;;;;;0.17;70.07;96197.75;4960925;28;20213;-86
2022/03/06 08:54:23;;;;;;;16.97;10.23;;;;;;;0.44;69.39;96201.81;4988988;28;20220;-85
2022/03/06 08:56:50;;;;;;;21.80;12.37;;;;;;;0.61;70.11;96201.56;4957966;28;20214;-85
2022/03/06 08:59:20;;;;;;;19.23;12.73;;;;;;;0.77;71.04;96194.56;4958112;28;20212;-86
2022/03/06 09:01:48;;;;;;;20.67;12.87;;;;;;;0.83;72.72;96189.38;4960327;28;20243;-85
2022/03/06 09:04:15;;;;;;;24.20;12.23;;;;;;;0.95;71.86;96187.13;4961309;28;20213;-85
2022/03/06 09:06:42;;;;;;;22.10;12.83;;;;;;;1.07;71.94;96185.75;4998818;28;20210;-86
2022/03/06 09:09:09;;;;;;;20.07;12.57;;;;;;;1.27;70.10;96194.94;4974794;28;20254;-85
2022/03/06 09:11:37;;;;;;;24.30;13.37;;;;;;;1.31;69.61;96187.41;4962508;28;20242;-86
2022/03/06 09:14:06;;;;;;;19.57;12.47;;;;;;;1.49;68.93;96202.09;4961528;28;20211;-85
2022/03/06 09:16:35;;;;;;;23.90;14.17;;;;;;;1.71;68.63;96194.25;4959641;28;20213;-84
2022/03/06 09:19:02;;;;;;;24.30;13.83;;;;;;;1.75;68.37;96191.06;4957021;28;20623;-85
2022/03/06 09:21:30;;;;;;;22.00;12.97;;;;;;;1.88;67.50;96206.41;4960066;28;20481;-85
2022/03/06 09:23:57;;;;;;;22.57;13.73;;;;;;;1.87;67.64;96194.94;4979307;28;20296;-85
2022/03/06 09:26:24;;;;;;;21.87;12.17;;;;;;;2.03;67.43;96199.31;4963299;28;20301;-85
2022/03/06 09:28:51;;;;;;;24.23;13.53;;;;;;;2.10;67.02;96199.41;4954016;28;20215;-86
2022/03/06 09:31:19;;;;;;;21.47;12.33;;;;;;;2.06;65.41;96193.59;4988901;28;20222;-85
2022/03/06 09:33:47;;;;;;;21.00;12.77;;;;;;;2.13;66.17;96189.19;4959009;28;20209;-85
2022/03/06 09:36:14;;;;;;;21.67;13.10;;;;;;;2.34;67.06;96201.00;4963493;28;20212;-85
2022/03/06 09:38:41;;;;;;;23.50;13.63;;;;;;;2.35;67.86;96198.16;4957651;28;20241;-85
2022/03/06 09:41:11;;;;;;;24.00;13.97;;;;;;;2.36;68.37;96188.31;4961287;28;20242;-84
2022/03/06 09:43:39;;;;;;;23.93;12.83;;;;;;;2.43;69.42;96194.56;4959279;28;20231;-85
2022/03/06 09:46:08;;;;;;;22.53;13.43;;;;;;;2.51;69.53;96194.47;4952498;28;20236;-86
2022/03/06 09:48:35;;;;;;;22.17;13.80;;;;;;;2.65;70.27;96188.31;4965149;28;20219;-84
2022/03/06 09:51:05;;;;;;;20.97;13.40;;;;;;;2.71;69.66;96187.59;4963567;28;20209;-86
2022/03/06 09:53:33;;;;;;;23.70;13.30;;;;;;;2.83;69.00;96186.09;4962952;28;20209;-86
2022/03/06 09:56:00;;;;;;;21.40;13.97;;;;;;;2.88;68.71;96185.53;4960994;28;20232;-86
2022/03/06 09:58:28;;;;;;;25.17;13.37;;;;;;;2.91;67.71;96193.97;4995880;28;20197;-85
2022/03/06 10:00:57;;;;;;;20.67;13.03;;;;;;;3.03;68.69;96186.34;4964013;28;20393;-85
2022/03/06 10:03:25;;;;;;;20.17;12.97;;;;;;;3.17;68.22;96187.31;4949495;28;20216;-85
2022/03/06 10:05:53;;;;;;;20.70;13.47;;;;;;;3.26;67.41;96196.84;4959876;28;20312;-85
2022/03/06 10:08:26;;;;;;;24.50;14.77;;;;;;;3.38;69.07;96190.00;4958890;28;20294;-85
2022/03/06 10:10:56;;;;;;;20.67;13.63;;;;;;;3.60;68.69;96191.66;4973205;28;20237;-85
2022/03/06 10:13:26;;;;;;;25.63;14.53;;;;;;;3.74;66.04;96200.63;4958179;28;20259;-85
2022/03/06 10:16:08;;;;;;;22.30;13.33;;;;;;;3.76;64.61;96194.06;4953366;28;20209;-86
2022/03/06 10:18:38;;;;;;;21.60;12.80;;;;;;;3.82;63.24;96200.50;4959946;28;20217;-85
2022/03/06 10:21:13;;;;;;;21.03;13.40;;;;;;;3.88;62.05;96197.06;4963516;28;20244;-85
2022/03/06 10:23:41;;;;;;;19.37;13.30;;;;;;;3.93;60.70;96204.47;4956140;28;20225;-85
2022/03/06 10:26:11;;;;;;;20.33;13.30;;;;;;;3.91;60.29;96196.69;4978434;28;20239;-84
2022/03/06 10:28:53;;;;;;;20.70;13.60;;;;;;;3.93;59.01;96199.97;4961055;28;20228;-85
2022/03/06 10:31:21;;;;;;;22.00;12.83;;;;;;;3.88;59.02;96199.72;4955286;28;20213;-81
2022/03/06 10:34:00;;;;;;;23.37;13.23;;;;;;;4.02;58.67;96204.16;4963935;28;20540;-81
2022/03/06 10:36:31;;;;;;;23.07;13.00;;;;;;;4.19;59.13;96196.69;4962383;28;20299;-86
2022/03/06 10:39:00;;;;;;;20.97;13.60;;;;;;;4.15;57.96;96193.59;4963136;28;20323;-86
2022/03/06 10:41:36;;;;;;;21.17;14.00;;;;;;;4.39;61.33;96194.16;4961509;28;20219;-85
2022/03/06 10:44:03;;;;;;;23.47;13.93;;;;;;;4.65;62.22;96193.50;4966286;28;20269;-85
2022/03/06 10:46:33;;;;;;;21.83;13.27;;;;;;;4.65;59.93;96209.56;4964598;28;20228;-86
2022/03/06 10:49:07;;;;;;;24.37;14.67;;;;;;;4.64;60.45;96199.88;4960717;28;20194;-82
2022/03/06 10:51:38;;;;;;;20.80;13.77;;;;;;;4.79;60.56;96200.56;4960396;28;20228;-82
2022/03/06 10:54:06;;;;;;;25.37;14.63;;;;;;;4.88;61.75;96202.06;4959044;28;20205;-82
2022/03/06 10:56:33;;;;;;;23.47;15.10;;;;;;;5.06;61.60;96204.19;4960781;28;20290;-85
2022/03/06 10:59:03;;;;;;;25.37;14.47;;;;;;;4.99;59.52;96196.16;4960772;28;20216;-85
2022/03/06 11:01:30;;;;;;;24.33;13.33;;;;;;;5.04;58.28;96198.22;4954589;28;20224;-86
2022/03/06 11:04:00;;;;;;;23.40;14.37;;;;;;;5.03;57.92;96199.22;4959838;28;20220;-85
2022/03/06 11:06:28;;;;;;;23.27;14.03;;;;;;;5.07;58.19;96209.34;4941702;28;20229;-87
2022/03/06 11:08:55;;;;;;;25.30;15.10;;;;;;;5.18;56.11;96200.78;4954050;28;20209;-86
2022/03/06 11:11:27;;;;;;;27.03;15.17;;;;;;;5.37;57.31;96203.69;4960845;28;20354;-85
2022/03/06 11:13:56;;;;;;;24.70;14.93;;;;;;;5.33;57.42;96203.28;4963169;28;20216;-86
2022/03/06 11:16:24;;;;;;;23.57;14.63;;;;;;;5.52;55.41;96210.56;4967064;28;20205;-86
2022/03/06 11:18:53;;;;;;;24.07;14.30;;;;;;;5.50;55.85;96209.09;4964100;28;20205;-86
2022/03/06 11:21:24;;;;;;;23.60;14.53;;;;;;;5.59;54.81;96207.88;4954568;28;20209;-87
2022/03/06 11:23:53;;;;;;;22.17;14.63;;;;;;;5.83;58.04;96204.63;4962720;28;20237;-85
2022/03/06 11:26:53;;;;;;;26.13;15.20;;;;;;;5.92;58.03;96211.47;4957746;28;20316;-86